Time;durP1;ratioP1;P1;durP2;ratioP2;P2;SDS_P1;SDS_P2;PMS_P1;PMS_P2;Temp;Humidity;BMP_temperature;BMP_pressure;BME280_temperature;BME280_humidity;BME280_pressure;Samples;Min_cycle;Max_cycle;Signal;HPM_P1;HPM_P2
2022/05/01 00:01:18;;;;;;;16.92;13.13;;;6.30;99.90;;;;;;5069168;28;20051;-66
2022/05/01 00:03:44;;;;;;;14.77;12.13;;;6.40;99.90;;;;;;5070943;28;20047;-66
2022/05/01 00:06:12;;;;;;;15.38;11.95;;;6.30;99.90;;;;;;5070395;28;20394;-66
2022/05/01 00:08:42;;;;;;;16.38;13.32;;;6.30;99.90;;;;;;5069482;28;20382;-67
2022/05/01 00:11:09;;;;;;;17.02;12.80;;;6.20;99.90;;;;;;5068827;28;20383;-65
2022/05/01 00:13:36;;;;;;;16.85;12.52;;;6.20;99.90;;;;;;5070579;28;20213;-65
2022/05/01 00:16:02;;;;;;;14.88;12.15;;;6.20;99.90;;;;;;5069306;28;20056;-66
2022/05/01 00:18:28;;;;;;;18.15;12.38;;;6.20;99.90;;;;;;5052756;28;20059;-65
2022/05/01 00:20:54;;;;;;;15.82;12.55;;;6.30;99.90;;;;;;5071277;28;20041;-66
2022/05/01 00:23:20;;;;;;;15.45;12.55;;;6.10;99.90;;;;;;5072653;28;20049;-66
2022/05/01 00:25:46;;;;;;;16.08;12.07;;;6.10;99.90;;;;;;5074312;28;20045;-65
2022/05/01 00:28:15;;;;;;;19.88;12.38;;;6.00;99.90;;;;;;5072520;28;20405;-64
2022/05/01 00:30:41;;;;;;;14.77;11.90;;;6.00;99.90;;;;;;5074071;28;20113;-66
2022/05/01 00:38:37;;;;;;;;;;;5.80;99.90;;;;;;5074474;28;20117;-65
2022/05/01 00:41:05;;;;;;;15.38;12.98;;;5.90;99.90;;;;;;5073992;28;20010;-65
2022/05/01 00:43:31;;;;;;;18.50;13.73;;;5.80;99.90;;;;;;5055947;28;20080;-65
2022/05/01 00:45:57;;;;;;;16.45;14.00;;;5.80;99.90;;;;;;5073947;28;20052;-65
2022/05/01 00:48:23;;;;;;;17.77;13.90;;;5.80;99.90;;;;;;5072349;28;20048;-66
2022/05/01 00:50:51;;;;;;;15.25;13.45;;;5.80;99.90;;;;;;5073664;28;20056;-65
2022/05/01 00:53:17;;;;;;;15.52;13.02;;;5.80;99.90;;;;;;5071945;28;20044;-65
2022/05/01 00:55:43;;;;;;;16.10;13.88;;;5.80;99.90;;;;;;5072775;28;20105;-65
2022/05/01 00:58:09;;;;;;;17.13;13.57;;;5.70;99.90;;;;;;5072166;28;20094;-69
2022/05/01 01:00:35;;;;;;;17.55;14.45;;;5.70;99.90;;;;;;5072451;28;20048;-65
2022/05/01 01:03:02;;;;;;;16.85;13.73;;;5.60;99.90;;;;;;5073615;28;20119;-66
2022/05/01 01:05:28;;;;;;;16.83;13.68;;;5.60;99.90;;;;;;5071977;28;20048;-65
2022/05/01 01:07:53;;;;;;;16.23;13.57;;;5.60;99.90;;;;;;5073487;28;20052;-65
2022/05/01 01:10:20;;;;;;;17.05;14.18;;;5.60;99.90;;;;;;5071906;28;20490;-66
2022/05/01 01:12:56;;;;;;;18.85;14.32;;;5.50;99.90;;;;;;5055469;28;20041;-65
2022/05/01 01:15:21;;;;;;;16.67;14.20;;;5.50;99.90;;;;;;5056508;28;20513;-66
2022/05/01 01:17:52;;;;;;;16.20;13.60;;;5.60;99.90;;;;;;5055645;28;20053;-64
2022/05/01 01:20:21;;;;;;;15.00;12.82;;;5.40;99.90;;;;;;5072810;28;20417;-65
2022/05/01 01:22:50;;;;;;;17.25;13.90;;;5.40;99.90;;;;;;5072111;28;20088;-66
2022/05/01 01:25:22;;;;;;;16.88;14.77;;;5.40;99.90;;;;;;5071427;28;20048;-66
2022/05/01 01:27:50;;;;;;;17.90;13.60;;;5.30;99.90;;;;;;5073165;28;20551;-65
2022/05/01 01:33:02;;;;;;;18.25;14.25;;;5.30;99.90;;;;;;5070730;28;20102;-67
2022/05/01 01:35:29;;;;;;;15.68;14.00;;;5.20;99.90;;;;;;5071018;28;20056;-65
2022/05/01 01:37:55;;;;;;;17.83;14.13;;;5.20;99.90;;;;;;5071739;28;20387;-66
2022/05/01 01:40:30;;;;;;;17.73;14.52;;;5.20;99.90;;;;;;5072432;28;20123;-65
2022/05/01 01:42:57;;;;;;;19.25;14.52;;;5.10;99.90;;;;;;5072742;28;20308;-66
2022/05/01 01:45:28;;;;;;;17.70;14.35;;;5.10;99.90;;;;;;5071294;28;20048;-66
2022/05/01 01:47:55;;;;;;;18.63;13.70;;;5.20;99.90;;;;;;5072756;28;20048;-66
2022/05/01 01:50:21;;;;;;;17.90;13.55;;;5.10;99.90;;;;;;5072019;28;20059;-65
2022/05/01 01:52:47;;;;;;;18.70;14.43;;;5.10;99.90;;;;;;5072318;28;20049;-65
2022/05/01 01:55:17;;;;;;;16.98;13.60;;;5.10;99.90;;;;;;5072558;28;20056;-66
2022/05/01 01:57:45;;;;;;;15.45;13.13;;;5.00;99.90;;;;;;5072565;28;20044;-66
2022/05/01 02:00:12;;;;;;;16.17;12.73;;;5.00;99.90;;;;;;5072433;28;20616;-67
2022/05/01 02:02:39;;;;;;;15.43;13.18;;;5.00;99.90;;;;;;5054155;28;20635;-65
2022/05/01 02:05:06;;;;;;;14.32;12.13;;;4.90;99.90;;;;;;5072264;28;20054;-65
2022/05/01 02:07:32;;;;;;;13.50;11.07;;;4.90;99.90;;;;;;5070911;28;20053;-66
2022/05/01 02:09:58;;;;;;;12.00;10.15;;;4.80;99.90;;;;;;5070976;28;20478;-65
2022/05/01 02:12:23;;;;;;;11.43;10.20;;;4.70;99.90;;;;;;5071538;28;20075;-66
2022/05/01 02:14:49;;;;;;;12.55;10.45;;;4.70;99.90;;;;;;5071234;28;20071;-66
2022/05/01 02:17:15;;;;;;;11.07;9.65;;;4.70;99.90;;;;;;5070860;28;20087;-65
2022/05/01 02:19:41;;;;;;;11.82;9.13;;;4.80;99.90;;;;;;5070610;28;20463;-65
2022/05/01 02:22:07;;;;;;;11.45;9.68;;;4.60;99.90;;;;;;5071579;28;20469;-65
2022/05/01 02:24:34;;;;;;;13.63;9.15;;;4.50;99.90;;;;;;5070366;28;20051;-64
2022/05/01 02:27:00;;;;;;;11.48;10.18;;;4.50;99.90;;;;;;5072043;28;20041;-65
2022/05/01 02:29:27;;;;;;;10.95;9.55;;;4.50;99.90;;;;;;5070348;28;20425;-66
2022/05/01 02:31:53;;;;;;;10.23;8.90;;;4.50;99.90;;;;;;5071882;28;20044;-65
2022/05/01 02:34:22;;;;;;;10.98;8.63;;;4.50;99.90;;;;;;5071739;28;20095;-69
2022/05/01 02:36:51;;;;;;;9.35;7.90;;;4.40;99.90;;;;;;5071744;28;20075;-65
2022/05/01 02:39:21;;;;;;;9.05;7.57;;;4.80;99.90;;;;;;5070558;28;20079;-65
2022/05/01 02:41:48;;;;;;;8.93;7.88;;;4.40;99.90;;;;;;5071681;28;20044;-66
2022/05/01 02:44:13;;;;;;;8.90;7.28;;;4.40;99.90;;;;;;5070405;28;20053;-66
2022/05/01 02:46:39;;;;;;;10.05;7.43;;;4.40;99.90;;;;;;5071328;28;20049;-65
2022/05/01 02:49:05;;;;;;;9.73;7.88;;;4.40;99.90;;;;;;5070498;28;20482;-66
2022/05/01 02:51:36;;;;;;;8.85;7.30;;;4.50;99.90;;;;;;5036145;28;20071;-65
2022/05/01 02:54:04;;;;;;;9.77;7.65;;;4.30;99.90;;;;;;5071052;28;20484;-67
2022/05/01 02:56:30;;;;;;;8.93;7.47;;;4.30;99.90;;;;;;5071029;28;20045;-67
2022/05/01 02:58:57;;;;;;;8.30;6.90;;;4.30;99.90;;;;;;5053665;28;20043;-65
2022/05/01 03:01:23;;;;;;;8.38;7.00;;;4.30;99.90;;;;;;5071344;28;20059;-70
2022/05/01 03:03:49;;;;;;;10.00;7.50;;;4.30;99.90;;;;;;5070199;28;20048;-66
2022/05/01 03:06:15;;;;;;;8.13;6.78;;;4.30;99.90;;;;;;5070407;28;20454;-65
2022/05/01 03:08:41;;;;;;;7.78;6.97;;;4.30;99.90;;;;;;5053248;28;20127;-67
2022/05/01 03:11:07;;;;;;;9.65;7.50;;;4.30;99.90;;;;;;5071281;28;20041;-66
2022/05/01 03:13:33;;;;;;;8.63;7.63;;;4.20;99.90;;;;;;5069748;28;20401;-65
2022/05/01 03:15:59;;;;;;;8.68;7.13;;;4.20;99.90;;;;;;5071178;28;20477;-66
2022/05/01 03:23:54;;;;;;;8.00;6.90;;;4.10;99.90;;;;;;5071292;28;20143;-67
2022/05/01 03:26:20;;;;;;;9.05;7.30;;;4.10;99.90;;;;;;5071169;28;20123;-66
2022/05/01 03:28:47;;;;;;;8.40;7.18;;;4.10;99.90;;;;;;5070718;28;20044;-66
2022/05/01 03:31:14;;;;;;;9.15;7.68;;;4.70;99.90;;;;;;5069865;28;20091;-65
2022/05/01 03:33:41;;;;;;;13.00;10.52;;;4.10;99.90;;;;;;5052323;28;20048;-65
2022/05/01 03:36:09;;;;;;;12.30;10.15;;;4.30;99.90;;;;;;5053626;28;20048;-65
2022/05/01 03:38:40;;;;;;;13.13;10.13;;;4.20;99.90;;;;;;5069387;28;20090;-67
2022/05/01 03:41:08;;;;;;;12.20;10.43;;;4.20;99.90;;;;;;5070922;28;20051;-66
2022/05/01 03:43:36;;;;;;;15.40;11.82;;;4.20;99.90;;;;;;5052969;28;20092;-65
2022/05/01 03:46:05;;;;;;;13.40;10.50;;;4.20;99.90;;;;;;5071012;28;20102;-66
2022/05/01 03:48:32;;;;;;;14.63;11.85;;;4.20;99.90;;;;;;5070334;28;20052;-71
2022/05/01 03:50:58;;;;;;;14.70;11.25;;;4.20;99.90;;;;;;5069453;28;20059;-65
2022/05/01 03:53:25;;;;;;;17.10;11.73;;;4.20;99.90;;;;;;5069681;28;20106;-66
2022/05/01 03:55:51;;;;;;;13.27;11.35;;;4.30;99.90;;;;;;5053995;28;20123;-65
2022/05/01 03:58:21;;;;;;;14.88;10.80;;;4.20;99.90;;;;;;5073566;28;20502;-65
2022/05/01 04:00:47;;;;;;;14.02;11.27;;;4.20;99.90;;;;;;5073033;28;20044;-65
2022/05/01 04:03:17;;;;;;;12.95;10.23;;;4.30;99.90;;;;;;5074326;28;20427;-68
2022/05/01 04:05:43;;;;;;;15.95;11.75;;;4.30;99.90;;;;;;5073118;28;20094;-66
2022/05/01 04:08:10;;;;;;;13.57;11.68;;;4.30;99.90;;;;;;5074483;28;20451;-66
2022/05/01 04:10:37;;;;;;;14.25;11.55;;;4.30;99.90;;;;;;5074046;28;20127;-68
2022/05/01 04:13:03;;;;;;;16.10;12.40;;;4.30;99.90;;;;;;5074372;28;20063;-65
2022/05/01 04:15:29;;;;;;;16.63;11.90;;;4.30;99.90;;;;;;5074448;28;20044;-66
2022/05/01 04:17:55;;;;;;;17.67;13.07;;;4.30;99.90;;;;;;5072391;28;20084;-68
2022/05/01 04:20:22;;;;;;;16.25;12.82;;;4.30;99.90;;;;;;5056131;28;20496;-66
2022/05/01 04:22:49;;;;;;;18.73;13.80;;;4.30;99.90;;;;;;5072472;28;20044;-65
2022/05/01 04:25:20;;;;;;;14.25;12.35;;;4.40;99.90;;;;;;5056441;28;20056;-66
2022/05/01 04:27:48;;;;;;;16.48;13.93;;;4.30;99.90;;;;;;5056051;28;20397;-67
2022/05/01 04:30:16;;;;;;;19.83;13.82;;;4.40;99.90;;;;;;5073566;28;20494;-67
2022/05/01 04:32:53;;;;;;;20.70;15.15;;;4.40;99.90;;;;;;5073551;28;20051;-65
2022/05/01 04:35:29;;;;;;;18.85;14.30;;;4.40;99.90;;;;;;5074089;28;20060;-65
2022/05/01 04:37:59;;;;;;;19.20;15.60;;;4.40;99.90;;;;;;5073553;28;20055;-67
2022/05/01 04:40:29;;;;;;;23.83;16.23;;;4.50;99.90;;;;;;5072793;28;20087;-66
2022/05/01 04:43:05;;;;;;;22.05;16.65;;;4.50;99.90;;;;;;5072441;28;20048;-66
2022/05/01 04:45:31;;;;;;;21.63;16.20;;;4.50;99.90;;;;;;5073884;28;20075;-67
2022/05/01 04:47:58;;;;;;;18.73;15.23;;;4.50;99.90;;;;;;5073249;28;20036;-66
2022/05/01 04:50:25;;;;;;;20.02;14.60;;;4.60;99.90;;;;;;5055831;28;20090;-67
2022/05/01 04:52:50;;;;;;;18.55;14.88;;;4.60;99.90;;;;;;5071398;28;20433;-68
2022/05/01 04:55:16;;;;;;;17.73;14.65;;;4.60;99.90;;;;;;5072540;28;20048;-66
2022/05/01 04:57:42;;;;;;;17.27;13.93;;;4.60;99.90;;;;;;5072054;28;20049;-65
2022/05/01 05:00:08;;;;;;;16.60;13.10;;;4.60;99.90;;;;;;5072368;28;20371;-65
2022/05/01 05:02:36;;;;;;;15.57;12.25;;;4.70;99.90;;;;;;5073401;28;20036;-64
2022/05/01 05:05:03;;;;;;;16.13;12.00;;;4.80;99.90;;;;;;5072115;28;20394;-66
2022/05/01 05:07:30;;;;;;;13.93;11.70;;;4.80;99.90;;;;;;5071138;28;20050;-66
2022/05/01 05:09:56;;;;;;;12.43;10.18;;;5.00;99.90;;;;;;5072993;28;20052;-66
2022/05/01 05:12:22;;;;;;;10.50;9.32;;;5.20;99.90;;;;;;5072171;28;20493;-65
2022/05/01 05:14:51;;;;;;;10.15;8.77;;;5.70;99.90;;;;;;5072776;28;20055;-65
2022/05/01 05:17:21;;;;;;;9.25;7.90;;;6.20;99.90;;;;;;5073340;28;20044;-66
2022/05/01 05:19:48;;;;;;;8.80;7.90;;;6.90;99.90;;;;;;5072910;28;20052;-67
2022/05/01 05:22:15;;;;;;;8.45;7.55;;;7.50;99.90;;;;;;5073279;28;20123;-65
2022/05/01 05:24:41;;;;;;;9.07;7.40;;;8.10;99.90;;;;;;5073148;28;20044;-70
2022/05/01 05:27:07;;;;;;;7.68;6.88;;;8.60;99.90;;;;;;5071862;28;20080;-66
2022/05/01 05:29:32;;;;;;;7.70;6.53;;;9.00;99.90;;;;;;5055454;28;20080;-67
2022/05/01 05:31:59;;;;;;;6.97;6.25;;;9.50;99.90;;;;;;5072593;28;20079;-66
2022/05/01 05:34:25;;;;;;;6.63;5.78;;;10.00;99.90;;;;;;5072943;28;20056;-65
2022/05/01 05:36:51;;;;;;;7.20;5.88;;;10.50;99.90;;;;;;5071565;28;20419;-66
2022/05/01 05:39:16;;;;;;;6.18;5.47;;;10.90;99.90;;;;;;5071588;28;20055;-68
2022/05/01 05:41:42;;;;;;;6.95;6.25;;;11.30;99.90;;;;;;5071608;28;20049;-71
2022/05/01 05:44:08;;;;;;;10.90;6.75;;;11.60;99.90;;;;;;5071448;28;20347;-65
2022/05/01 05:46:34;;;;;;;6.00;5.30;;;11.80;99.90;;;;;;5071655;28;20049;-65
2022/05/01 05:49:00;;;;;;;8.70;6.13;;;12.20;99.90;;;;;;5070874;28;20129;-65
2022/05/01 05:51:26;;;;;;;7.43;5.57;;;12.70;99.90;;;;;;5054380;28;20059;-66
2022/05/01 05:53:52;;;;;;;7.75;6.03;;;13.20;99.90;;;;;;5071942;28;20053;-66
2022/05/01 05:56:19;;;;;;;6.88;6.00;;;13.80;99.90;;;;;;5072515;28;20102;-65
2022/05/01 05:58:45;;;;;;;7.50;6.00;;;14.10;99.90;;;;;;5071157;28;20059;-70
2022/05/01 06:01:11;;;;;;;9.02;5.90;;;14.50;99.90;;;;;;5072214;28;20127;-66
2022/05/01 06:03:37;;;;;;;6.43;5.40;;;14.70;99.90;;;;;;5072459;28;20109;-65
2022/05/01 06:06:03;;;;;;;7.38;5.93;;;14.90;99.90;;;;;;5053839;28;20131;-66
2022/05/01 06:08:29;;;;;;;6.68;5.18;;;15.10;99.90;;;;;;5071204;28;20044;-65
2022/05/01 06:10:55;;;;;;;5.95;5.20;;;15.30;99.90;;;;;;5071858;28;20561;-66
2022/05/01 06:13:21;;;;;;;7.88;5.60;;;15.60;99.90;;;;;;5037306;28;20048;-65
2022/05/01 06:15:47;;;;;;;6.50;4.72;;;16.00;99.90;;;;;;5072176;28;20131;-69
2022/05/01 06:18:13;;;;;;;6.82;4.68;;;16.30;99.60;;;;;;5070431;28;20052;-66
2022/05/01 06:20:39;;;;;;;6.32;5.07;;;16.50;99.10;;;;;;5072223;28;20056;-66
2022/05/01 06:23:05;;;;;;;6.28;4.75;;;16.70;98.90;;;;;;5071366;28;20122;-66
2022/05/01 06:25:31;;;;;;;5.60;4.88;;;16.80;98.60;;;;;;5072075;28;20056;-66
2022/05/01 06:27:57;;;;;;;6.63;4.82;;;16.90;98.40;;;;;;5071503;28;20529;-66
2022/05/01 06:30:22;;;;;;;6.07;4.57;;;17.00;97.90;;;;;;5070752;28;20052;-66
2022/05/01 06:32:49;;;;;;;6.43;5.00;;;17.30;97.80;;;;;;5070728;28;20406;-68
2022/05/01 06:35:17;;;;;;;6.03;4.93;;;17.60;97.10;;;;;;5071629;28;20063;-65
2022/05/01 06:37:44;;;;;;;6.38;5.05;;;17.80;96.70;;;;;;5070480;28;20418;-65
2022/05/01 06:40:09;;;;;;;7.82;4.50;;;18.10;96.40;;;;;;5070258;28;20545;-66
2022/05/01 06:42:36;;;;;;;6.00;4.55;;;18.40;96.40;;;;;;5071611;28;20101;-68
2022/05/01 06:45:03;;;;;;;6.57;4.22;;;18.60;95.50;;;;;;5071330;28;20044;-66
2022/05/01 06:47:29;;;;;;;7.28;4.10;;;19.10;94.90;;;;;;5070417;28;20075;-68
2022/05/01 06:49:54;;;;;;;6.43;4.40;;;19.50;94.30;;;;;;5070765;28;20045;-66
2022/05/01 06:52:23;;;;;;;6.53;4.72;;;19.80;93.50;;;;;;5071569;28;20056;-66
2022/05/01 06:54:53;;;;;;;6.55;4.70;;;20.10;93.30;;;;;;5071472;28;20052;-67
2022/05/01 06:57:19;;;;;;;5.80;4.10;;;20.30;92.80;;;;;;5070149;28;20053;-66
2022/05/01 06:59:45;;;;;;;5.75;3.88;;;20.50;91.60;;;;;;5070550;28;20493;-66
2022/05/01 07:02:11;;;;;;;6.35;4.20;;;20.70;91.50;;;;;;5071068;28;20367;-66
2022/05/01 07:04:37;;;;;;;5.82;4.50;;;20.50;91.30;;;;;;5071548;28;20127;-67
2022/05/01 07:07:03;;;;;;;4.90;3.80;;;20.70;91.20;;;;;;5069565;28;20059;-66
2022/05/01 07:09:28;;;;;;;6.00;4.43;;;20.90;89.70;;;;;;5071299;28;20045;-66
2022/05/01 07:11:54;;;;;;;5.72;3.90;;;21.10;90.20;;;;;;5053252;28;20526;-72
2022/05/01 07:14:20;;;;;;;5.93;4.20;;;21.30;88.50;;;;;;5071319;28;20044;-65
2022/05/01 07:16:47;;;;;;;5.05;3.05;;;21.50;88.20;;;;;;5071067;28;20185;-65
2022/05/01 07:19:14;;;;;;;7.07;4.10;;;21.60;83.40;;;;;;5070518;28;20078;-65
2022/05/01 07:21:40;;;;;;;5.70;4.03;;;21.80;84.30;;;;;;5071122;28;20059;-66
2022/05/01 07:24:06;;;;;;;6.75;3.72;;;22.00;85.30;;;;;;5070672;28;20397;-66
2022/05/01 07:26:33;;;;;;;4.25;3.05;;;22.10;82.60;;;;;;5069792;28;20051;-66
2022/05/01 07:29:00;;;;;;;5.75;3.33;;;22.40;81.30;;;;;;5069265;28;20064;-66
2022/05/01 07:31:26;;;;;;;4.40;3.03;;;22.40;80.20;;;;;;5070531;28;20127;-66
2022/05/01 07:33:51;;;;;;;5.97;3.10;;;22.20;79.10;;;;;;5053120;28;20106;-65
2022/05/01 07:36:19;;;;;;;4.63;2.90;;;21.90;79.90;;;;;;5070738;28;20072;-66
2022/05/01 07:38:46;;;;;;;6.03;3.38;;;21.70;78.60;;;;;;5071020;28;20063;-65
2022/05/01 07:41:11;;;;;;;5.60;3.65;;;21.90;78.70;;;;;;5070504;28;20048;-65
2022/05/01 07:43:38;;;;;;;5.57;3.50;;;21.50;79.90;;;;;;5070001;28;20052;-66
2022/05/01 07:46:05;;;;;;;6.93;3.72;;;21.90;79.00;;;;;;5070508;28;20137;-66
2022/05/01 07:48:31;;;;;;;5.75;3.78;;;21.80;79.50;;;;;;5071007;28;20047;-67
2022/05/01 07:50:57;;;;;;;6.63;3.50;;;21.00;78.60;;;;;;5069611;28;20429;-67
2022/05/01 07:53:22;;;;;;;5.70;3.70;;;20.10;79.70;;;;;;5070501;28;20071;-65
2022/05/01 07:55:48;;;;;;;4.97;3.70;;;19.30;82.00;;;;;;5052826;28;20041;-66
2022/05/01 07:58:14;;;;;;;6.28;3.65;;;19.20;82.60;;;;;;5070222;28;20090;-67
2022/05/01 08:00:40;;;;;;;4.95;3.45;;;19.50;81.70;;;;;;5069364;28;20044;-67
2022/05/01 08:05:50;;;;;;;5.50;3.38;;;20.40;80.40;;;;;;5069694;28;20056;-66
2022/05/01 08:08:16;;;;;;;6.72;3.95;;;20.60;79.60;;;;;;5069202;28;20045;-68
2022/05/01 08:10:42;;;;;;;4.00;3.30;;;20.80;79.10;;;;;;5069460;28;20056;-66
2022/05/01 08:13:07;;;;;;;4.22;3.05;;;21.00;80.00;;;;;;5070234;28;20040;-66
2022/05/01 08:15:33;;;;;;;4.82;3.17;;;21.10;76.70;;;;;;5069380;28;20053;-67
2022/05/01 08:21:05;;;;;;;4.32;2.90;;;21.60;77.60;;;;;;5070674;28;20053;-66
2022/05/01 08:23:29;;;;;;;4.60;2.60;;;22.00;73.20;;;;;;5070468;28;20131;-64
2022/05/01 08:25:55;;;;;;;3.88;2.70;;;21.30;73.20;;;;;;5069350;28;20128;-65
2022/05/01 08:28:20;;;;;;;4.40;3.00;;;21.30;73.60;;;;;;5052153;28;20049;-64
2022/05/01 08:30:47;;;;;;;4.25;3.17;;;21.20;73.10;;;;;;5070472;28;20050;-66
2022/05/01 08:33:12;;;;;;;4.88;3.20;;;20.90;74.00;;;;;;5068509;28;20097;-64
2022/05/01 08:35:38;;;;;;;6.15;4.20;;;20.80;74.80;;;;;;5070282;28;20483;-65
2022/05/01 08:38:07;;;;;;;3.72;3.20;;;20.40;76.00;;;;;;5068801;28;20132;-70
2022/05/01 08:40:33;;;;;;;5.25;3.30;;;20.30;76.50;;;;;;5070213;28;20128;-65
2022/05/01 08:43:00;;;;;;;5.22;3.47;;;20.00;76.40;;;;;;5055567;28;20478;-65
2022/05/01 08:45:32;;;;;;;5.65;3.38;;;20.10;76.50;;;;;;5072141;28;20485;-65
2022/05/01 08:48:11;;;;;;;4.75;3.60;;;20.20;77.50;;;;;;5072766;28;20051;-65
2022/05/01 08:50:38;;;;;;;5.30;3.40;;;20.10;77.60;;;;;;5073593;28;20067;-64
2022/05/01 08:53:06;;;;;;;5.18;3.58;;;20.30;77.90;;;;;;5072406;28;20522;-65
2022/05/01 08:55:32;;;;;;;6.13;3.38;;;20.40;76.90;;;;;;5072193;28;20693;-64
2022/05/01 08:57:59;;;;;;;5.63;3.20;;;19.80;77.00;;;;;;5073845;28;20056;-65
2022/05/01 09:00:30;;;;;;;4.40;3.42;;;19.50;77.70;;;;;;5073125;28;20052;-65
2022/05/01 09:02:56;;;;;;;7.05;3.70;;;19.40;78.30;;;;;;5073315;28;20040;-64
2022/05/01 09:05:22;;;;;;;7.53;3.60;;;19.30;78.50;;;;;;5073205;28;20044;-64
2022/05/01 09:07:47;;;;;;;7.88;3.58;;;18.60;78.90;;;;;;5073671;28;20055;-65
2022/05/01 09:10:14;;;;;;;5.18;3.47;;;18.50;79.80;;;;;;5071782;28;20166;-64
2022/05/01 09:12:50;;;;;;;6.32;3.58;;;18.40;79.10;;;;;;5073273;28;20619;-65
2022/05/01 09:15:40;;;;;;;6.10;3.55;;;18.60;79.00;;;;;;5072766;28;20048;-65
2022/05/01 09:18:10;;;;;;;5.50;3.83;;;18.60;78.00;;;;;;5064075;28;20056;-64
2022/05/01 09:20:39;;;;;;;7.07;4.20;;;18.60;78.90;;;;;;5073475;28;20052;-64
2022/05/01 09:23:06;;;;;;;7.57;4.10;;;18.40;78.90;;;;;;5073086;28;20040;-63
2022/05/01 09:25:33;;;;;;;4.85;3.70;;;18.30;79.40;;;;;;5072561;28;20552;-63
2022/05/01 09:28:00;;;;;;;4.95;3.83;;;18.20;79.60;;;;;;5072719;28;20049;-63
2022/05/01 09:30:38;;;;;;;6.10;3.78;;;18.20;79.20;;;;;;5072500;28;20486;-63
2022/05/01 09:33:04;;;;;;;7.97;3.45;;;18.20;79.60;;;;;;5073125;28;20048;-64
2022/05/01 09:35:35;;;;;;;5.80;3.25;;;18.30;79.40;;;;;;5072304;28;20048;-64
2022/05/01 09:38:21;;;;;;;7.90;3.80;;;18.40;78.90;;;;;;5071777;28;20045;-63
2022/05/01 09:40:57;;;;;;;5.35;3.70;;;18.20;79.00;;;;;;5071950;28;20064;-63
2022/05/01 09:43:47;;;;;;;8.15;3.60;;;18.20;79.60;;;;;;5072554;28;20123;-65
2022/05/01 09:46:29;;;;;;;6.40;4.28;;;18.20;80.00;;;;;;5071532;28;20071;-67
2022/05/01 09:48:58;;;;;;;5.85;3.72;;;18.10;80.40;;;;;;5071596;28;20048;-64
2022/05/01 09:51:24;;;;;;;5.38;3.60;;;18.00;80.00;;;;;;5070659;28;20059;-63
2022/05/01 09:53:50;;;;;;;7.28;4.00;;;18.00;80.20;;;;;;5070674;28;20053;-63
2022/05/01 09:56:15;;;;;;;7.10;3.72;;;18.00;80.70;;;;;;5070584;28;20427;-68
2022/05/01 09:58:43;;;;;;;5.93;3.70;;;17.90;81.20;;;;;;5072488;28;20131;-63
2022/05/01 10:01:11;;;;;;;4.88;3.50;;;18.00;80.00;;;;;;5072369;28;20052;-63
2022/05/01 10:03:43;;;;;;;4.45;3.28;;;18.20;79.90;;;;;;5070413;28;20689;-64
2022/05/01 10:06:11;;;;;;;6.63;3.67;;;18.00;79.30;;;;;;5071661;28;20052;-64
2022/05/01 10:08:38;;;;;;;4.55;3.65;;;18.10;79.10;;;;;;5071576;28;20128;-63
2022/05/01 10:11:05;;;;;;;5.75;3.38;;;18.10;78.90;;;;;;5072483;28;20087;-65
2022/05/01 10:13:32;;;;;;;5.07;3.50;;;17.90;79.60;;;;;;5071217;28;20488;-64
2022/05/01 10:15:59;;;;;;;5.88;3.60;;;17.80;79.80;;;;;;5070203;28;20146;-64
2022/05/01 10:18:25;;;;;;;5.13;3.38;;;17.70;79.50;;;;;;5070795;28;20052;-63
2022/05/01 10:20:51;;;;;;;4.45;3.30;;;17.80;78.40;;;;;;5071759;28;20431;-65
2022/05/01 10:23:17;;;;;;;5.90;3.38;;;17.80;78.80;;;;;;5069954;28;20056;-64
2022/05/01 10:26:09;;;;;;;4.88;3.75;;;17.80;78.20;;;;;;5070555;28;20051;-63
2022/05/01 10:28:56;;;;;;;6.70;3.45;;;17.90;77.90;;;;;;5060612;28;20063;-63
2022/05/01 10:34:41;;;;;;;5.03;3.53;;;18.00;78.20;;;;;;5071410;28;20110;-65
2022/05/01 10:37:31;;;;;;;6.50;3.78;;;18.00;78.00;;;;;;5071669;28;20524;-64
2022/05/01 10:39:58;;;;;;;5.13;3.58;;;17.80;78.00;;;;;;5071789;28;20052;-63
2022/05/01 10:42:33;;;;;;;5.30;3.10;;;17.60;77.60;;;;;;5071315;28;20490;-63
2022/05/01 10:44:59;;;;;;;5.07;3.25;;;17.70;77.60;;;;;;5070755;28;20056;-63
2022/05/01 10:47:36;;;;;;;3.95;3.15;;;17.70;77.90;;;;;;5071196;28;20151;-64
2022/05/01 10:50:07;;;;;;;5.13;3.28;;;17.60;77.30;;;;;;5070842;28;20106;-63
2022/05/01 10:52:33;;;;;;;7.00;3.30;;;17.60;76.90;;;;;;5069066;28;20106;-63
2022/05/01 10:55:04;;;;;;;3.92;2.97;;;17.60;77.20;;;;;;5071025;28;20355;-63
2022/05/01 10:57:30;;;;;;;4.80;2.95;;;17.70;77.20;;;;;;5070399;28;20080;-63
2022/05/01 11:00:12;;;;;;;6.00;3.33;;;17.70;76.90;;;;;;5070313;28;20056;-63
2022/05/01 11:02:48;;;;;;;5.40;3.10;;;17.70;77.00;;;;;;5071134;28;20048;-63
2022/05/01 11:05:40;;;;;;;3.53;2.83;;;17.80;76.40;;;;;;5070703;28;20052;-64
2022/05/01 11:08:14;;;;;;;5.68;3.00;;;17.50;76.80;;;;;;5059593;28;20048;-65
2022/05/01 11:10:40;;;;;;;5.72;3.53;;;17.40;76.90;;;;;;5070813;28;20363;-63
2022/05/01 11:13:07;;;;;;;4.60;3.65;;;17.50;80.20;;;;;;5070060;28;20044;-65
2022/05/01 11:15:47;;;;;;;6.82;3.60;;;17.40;80.60;;;;;;5070563;28;20118;-64
2022/05/01 11:18:13;;;;;;;7.18;4.10;;;17.10;81.70;;;;;;5068806;28;20110;-66
2022/05/01 11:20:39;;;;;;;6.45;3.40;;;17.10;81.60;;;;;;5069029;28;20044;-65
2022/05/01 11:23:29;;;;;;;5.15;3.15;;;17.10;81.00;;;;;;5068849;28;20562;-63
2022/05/01 11:26:06;;;;;;;5.30;3.33;;;17.20;79.10;;;;;;5071137;28;20049;-62
2022/05/01 11:28:54;;;;;;;5.45;3.60;;;17.20;81.20;;;;;;5069793;28;20047;-63
2022/05/01 11:31:37;;;;;;;6.63;4.00;;;17.10;81.20;;;;;;5070921;28;20492;-64
2022/05/01 11:34:24;;;;;;;5.57;3.00;;;17.10;81.40;;;;;;5070423;28;20045;-64
2022/05/01 11:37:08;;;;;;;6.35;4.05;;;17.30;81.40;;;;;;5069135;28;20052;-63
2022/05/01 11:39:46;;;;;;;5.25;3.50;;;17.20;81.20;;;;;;5069584;28;20075;-65
2022/05/01 11:42:29;;;;;;;6.32;3.47;;;16.80;81.50;;;;;;5070632;28;20367;-65
2022/05/01 11:45:00;;;;;;;5.95;3.08;;;16.50;81.00;;;;;;5070644;28;20048;-63
2022/05/01 11:47:28;;;;;;;5.10;3.53;;;16.30;81.00;;;;;;5052653;28;20502;-67
2022/05/01 11:49:54;;;;;;;5.20;3.30;;;16.30;81.80;;;;;;5069769;28;20102;-64
2022/05/01 11:52:22;;;;;;;5.72;3.40;;;16.30;81.70;;;;;;5068966;28;20107;-63
2022/05/01 11:54:56;;;;;;;4.32;2.83;;;16.20;81.00;;;;;;5070091;28;20129;-63
2022/05/01 12:02:24;;;;;;;5.88;3.70;;;16.60;79.00;;;;;;5069586;28;19927;-65
2022/05/01 12:03:12;;;;;;;5.75;3.55;;;16.70;82.90;;;;;;5070194;28;20048;-64
2022/05/01 12:05:56;;;;;;;4.82;3.65;;;16.60;82.00;;;;;;5068636;28;20132;-67
2022/05/01 12:08:22;;;;;;;4.85;3.40;;;16.40;82.10;;;;;;5070363;28;20059;-66
2022/05/01 12:10:48;;;;;;;4.88;3.45;;;16.30;82.10;;;;;;5069839;28;20173;-63
2022/05/01 12:13:27;;;;;;;5.70;3.60;;;16.20;82.50;;;;;;5069946;28;20402;-62
2022/05/01 12:15:54;;;;;;;5.53;3.53;;;16.20;85.00;;;;;;5070432;28;20067;-65
2022/05/01 12:18:20;;;;;;;5.38;3.60;;;16.20;85.00;;;;;;5074175;28;20080;-64
2022/05/01 12:20:46;;;;;;;5.65;3.67;;;16.10;85.00;;;;;;5072740;28;20494;-64
2022/05/01 12:23:20;;;;;;;6.95;4.13;;;15.90;85.40;;;;;;5074320;28;20044;-64
2022/05/01 12:25:50;;;;;;;8.02;4.22;;;15.80;85.10;;;;;;5072852;28;20475;-64
2022/05/01 12:28:18;;;;;;;6.18;3.70;;;15.80;86.70;;;;;;5072568;28;20059;-63
2022/05/01 12:30:49;;;;;;;6.65;3.95;;;15.80;87.60;;;;;;5073523;28;20079;-66
2022/05/01 12:33:24;;;;;;;4.30;3.50;;;15.80;88.80;;;;;;5073983;28;20565;-63
2022/05/01 12:35:58;;;;;;;6.25;3.70;;;15.70;88.40;;;;;;5073751;28;20105;-62
2022/05/01 12:38:28;;;;;;;;;;;15.70;87.50;;;;;;5072861;28;20491;-63
2022/05/01 12:43:53;;;;;;;5.38;3.47;;;15.90;86.80;;;;;;5073047;28;20180;-62
2022/05/01 12:46:29;;;;;;;6.40;3.67;;;16.30;87.10;;;;;;5072842;28;20435;-63
2022/05/01 12:48:56;;;;;;;5.00;3.22;;;16.40;85.50;;;;;;5073493;28;20232;-64
2022/05/01 12:51:24;;;;;;;5.13;3.33;;;16.40;85.30;;;;;;5072644;28;20056;-64
2022/05/01 12:54:10;;;;;;;6.05;3.58;;;16.20;85.10;;;;;;5073345;28;20048;-62
2022/05/01 12:56:36;;;;;;;6.22;3.55;;;16.30;83.30;;;;;;5073359;28;20051;-63
2022/05/01 12:59:26;;;;;;;5.60;3.15;;;16.40;83.80;;;;;;5073747;28;20406;-63
2022/05/01 13:01:54;;;;;;;5.30;3.88;;;16.30;84.50;;;;;;5072055;28;20048;-63
2022/05/01 13:04:27;;;;;;;4.95;3.50;;;16.30;84.40;;;;;;5073411;28;20414;-63
2022/05/01 13:06:53;;;;;;;5.03;3.40;;;16.10;83.80;;;;;;5072232;28;20402;-64
2022/05/01 13:09:19;;;;;;;4.93;3.70;;;16.00;84.60;;;;;;5071871;28;20448;-64
2022/05/01 13:11:59;;;;;;;5.47;3.83;;;15.90;85.30;;;;;;5071697;28;20055;-63
2022/05/01 13:14:33;;;;;;;6.00;3.30;;;15.90;85.70;;;;;;5055630;28;20533;-64
2022/05/01 13:17:12;;;;;;;5.65;3.70;;;16.10;84.90;;;;;;5071490;28;20186;-65
2022/05/01 13:19:41;;;;;;;4.60;3.50;;;16.00;84.20;;;;;;5072834;28;20455;-69
2022/05/01 13:22:08;;;;;;;5.63;3.22;;;16.20;83.80;;;;;;5071658;28;20389;-64